createdAt,value
2019-05-20T00:00:18.131Z,98.20
2019-05-20T00:02:47.540Z,97.80
2019-05-20T00:05:16.882Z,97.30
2019-05-20T00:07:46.268Z,97.40
2019-05-20T00:10:16.462Z,97.30
2019-05-20T00:12:45.787Z,97.10
2019-05-20T00:15:15.445Z,96.80
2019-05-20T00:17:44.777Z,96.60
2019-05-20T00:20:14.991Z,96.50
2019-05-20T00:22:44.284Z,96.40
2019-05-20T00:25:14.018Z,96.30
2019-05-20T00:27:43.313Z,96.20
2019-05-20T00:30:13.451Z,96.00
2019-05-20T00:32:42.732Z,95.70
2019-05-20T00:35:12.573Z,96.00
2019-05-20T00:37:41.953Z,95.30
2019-05-20T00:40:11.781Z,94.90
2019-05-20T00:42:41.820Z,94.80
2019-05-20T00:45:11.502Z,94.80
2019-05-20T00:47:40.839Z,94.70
2019-05-20T00:50:11.106Z,94.70
2019-05-20T00:52:40.389Z,94.70
2019-05-20T00:55:18.324Z,94.60
2019-05-20T00:57:47.611Z,94.70
2019-05-20T01:00:17.221Z,94.80
2019-05-20T01:02:56.429Z,94.60
2019-05-20T01:05:17.581Z,94.60
2019-05-20T01:07:47.002Z,94.60
2019-05-20T01:10:16.450Z,94.50
2019-05-20T01:12:45.744Z,94.40
2019-05-20T01:15:16.084Z,94.30
2019-05-20T01:17:45.493Z,94.60
2019-05-20T01:20:15.190Z,94.50
2019-05-20T01:22:44.610Z,94.50
2019-05-20T01:25:14.197Z,94.50
2019-05-20T01:27:43.478Z,94.40
2019-05-20T01:30:14.142Z,94.50
2019-05-20T01:32:43.425Z,94.60
2019-05-20T01:35:13.791Z,94.80
2019-05-20T01:37:43.166Z,94.70
2019-05-20T01:40:13.483Z,94.60
2019-05-20T01:42:42.853Z,94.70
2019-05-20T01:45:12.855Z,94.70
2019-05-20T01:47:42.761Z,94.80
2019-05-20T01:50:13.013Z,94.80
2019-05-20T01:52:42.307Z,94.80
2019-05-20T01:55:12.341Z,94.80
2019-05-20T01:57:41.750Z,94.80
2019-05-20T02:00:13.577Z,94.90
2019-05-20T02:02:42.958Z,94.90
2019-05-20T02:05:12.349Z,95.10
2019-05-20T02:07:41.698Z,95.10
2019-05-20T02:10:12.270Z,95.00
2019-05-20T02:12:41.557Z,95.10
2019-05-20T02:15:21.585Z,95.10
2019-05-20T02:17:50.879Z,95.30
2019-05-20T02:20:20.225Z,95.30
2019-05-20T02:22:49.570Z,95.40
2019-05-20T02:25:19.269Z,95.60
2019-05-20T02:27:48.565Z,95.70
2019-05-20T02:30:17.917Z,96.20
2019-05-20T02:32:47.323Z,96.30
2019-05-20T02:35:16.676Z,96.10
2019-05-20T02:37:46.026Z,96.30
2019-05-20T02:40:15.314Z,96.30
2019-05-20T02:42:44.743Z,96.30
2019-05-20T02:45:14.147Z,96.60
2019-05-20T02:47:43.434Z,96.80
2019-05-20T02:50:13.255Z,97.00
2019-05-20T02:52:42.889Z,97.20
2019-05-20T02:55:12.542Z,97.40
2019-05-20T02:57:41.813Z,97.30
2019-05-20T03:00:12.038Z,97.50
2019-05-20T03:02:41.325Z,97.50
2019-05-20T03:05:11.337Z,97.20
2019-05-20T03:07:40.773Z,97.50
2019-05-20T03:10:10.506Z,96.90
2019-05-20T03:12:39.932Z,97.40
2019-05-20T03:15:09.694Z,97.10
2019-05-20T03:17:39.034Z,96.90
2019-05-20T03:20:08.722Z,96.80
2019-05-20T03:22:38.067Z,96.70
2019-05-20T03:25:08.625Z,96.50
2019-05-20T03:27:38.524Z,96.40
2019-05-20T03:30:09.922Z,96.40
2019-05-20T03:32:39.254Z,96.90
2019-05-20T03:35:08.979Z,96.60
2019-05-20T03:37:38.319Z,96.60
2019-05-20T03:40:09.027Z,96.80
2019-05-20T03:42:38.353Z,96.90
2019-05-20T03:45:08.537Z,97.30
2019-05-20T03:47:37.883Z,97.40
2019-05-20T03:50:07.826Z,97.80
2019-05-20T03:52:37.157Z,98.20
2019-05-20T03:55:07.498Z,98.60
2019-05-20T03:57:36.942Z,99.00
2019-05-20T04:00:07.955Z,99.10
2019-05-20T04:02:37.287Z,99.30
2019-05-20T04:05:06.979Z,99.30
2019-05-20T04:07:36.373Z,99.30
2019-05-20T04:10:06.803Z,99.10
2019-05-20T04:12:36.220Z,99.40
2019-05-20T04:15:05.862Z,99.70
2019-05-20T04:17:35.256Z,99.80
2019-05-20T04:20:05.366Z,99.90
2019-05-20T04:22:34.828Z,99.90
2019-05-20T04:25:05.297Z,99.90
2019-05-20T04:27:34.656Z,99.90
2019-05-20T04:30:04.991Z,99.90
2019-05-20T04:32:34.337Z,99.90
2019-05-20T04:35:20.472Z,99.90
2019-05-20T04:37:34.765Z,99.90
2019-05-20T04:40:04.638Z,99.90
2019-05-20T04:42:33.972Z,99.90
2019-05-20T04:45:03.313Z,99.90
2019-05-20T04:47:33.263Z,99.90
2019-05-20T04:50:02.617Z,99.90
2019-05-20T04:52:32.011Z,99.90
2019-05-20T04:55:01.298Z,99.90
2019-05-20T04:57:30.638Z,99.90
2019-05-20T05:00:00.049Z,99.90
2019-05-20T05:02:29.374Z,99.90
2019-05-20T05:04:58.698Z,99.90
2019-05-20T05:07:28.389Z,99.90
2019-05-20T05:09:57.886Z,99.90
2019-05-20T05:12:27.229Z,99.90
2019-05-20T05:14:56.510Z,99.90
2019-05-20T05:17:25.858Z,99.90
2019-05-20T05:19:55.487Z,99.90
2019-05-20T05:22:24.813Z,99.90
2019-05-20T05:24:54.089Z,99.90
2019-05-20T05:27:23.432Z,99.90
2019-05-20T05:29:52.714Z,99.90
2019-05-20T05:32:41.267Z,99.90
2019-05-20T05:35:14.450Z,99.90
2019-05-20T05:37:44.302Z,99.90
2019-05-20T05:40:14.862Z,99.90
2019-05-20T05:42:44.272Z,99.90
2019-05-20T05:45:14.350Z,99.90
2019-05-20T05:47:43.773Z,99.90
2019-05-20T05:50:13.661Z,99.90
2019-05-20T05:52:43.028Z,99.90
2019-05-20T05:55:12.450Z,99.90
2019-05-20T05:57:41.990Z,99.90
2019-05-20T06:00:12.346Z,99.90
2019-05-20T06:02:41.702Z,99.90
2019-05-20T06:05:12.010Z,99.90
2019-05-20T06:07:41.432Z,99.90
2019-05-20T06:10:11.337Z,99.90
2019-05-20T06:12:40.829Z,99.90
2019-05-20T06:15:11.763Z,99.90
2019-05-20T06:17:41.122Z,99.90
2019-05-20T06:20:11.598Z,99.90
2019-05-20T06:22:41.025Z,99.90
2019-05-20T06:25:11.867Z,99.90
2019-05-20T06:27:41.324Z,99.90
2019-05-20T06:30:12.799Z,99.90
2019-05-20T06:32:42.185Z,99.90
2019-05-20T06:35:13.008Z,99.90
2019-05-20T06:37:49.325Z,99.90
2019-05-20T06:40:18.689Z,99.90
2019-05-20T06:42:48.101Z,99.90
2019-05-20T06:45:17.885Z,99.90
2019-05-20T06:47:47.369Z,99.90
2019-05-20T06:50:17.235Z,99.90
2019-05-20T06:52:46.664Z,99.90
2019-05-20T06:55:16.405Z,99.90
2019-05-20T06:57:45.713Z,99.90
2019-05-20T07:00:19.479Z,99.90
2019-05-20T07:02:52.134Z,99.90
2019-05-20T07:05:21.020Z,99.90
2019-05-20T07:07:50.454Z,99.70
2019-05-20T07:10:19.865Z,99.50
2019-05-20T07:12:49.310Z,99.70
2019-05-20T07:15:18.748Z,99.30
2019-05-20T07:17:48.249Z,99.30
2019-05-20T07:20:17.673Z,99.60
2019-05-20T07:22:55.932Z,99.20
2019-05-20T07:25:18.129Z,99.60
2019-05-20T07:27:47.662Z,99.90
2019-05-20T07:30:20.763Z,99.90
2019-05-20T07:32:51.111Z,99.90
2019-05-20T07:35:30.148Z,99.90
2019-05-20T07:37:51.593Z,99.90
2019-05-20T07:40:31.459Z,99.90
2019-05-20T07:43:01.862Z,99.90
2019-05-20T07:45:35.334Z,99.90
2019-05-20T07:48:06.205Z,99.90
2019-05-20T07:50:39.821Z,99.90
2019-05-20T07:53:11.653Z,99.90
2019-05-20T07:55:47.243Z,99.90
2019-05-20T07:58:19.185Z,99.90
2019-05-20T08:00:48.905Z,99.90
2019-05-20T08:03:18.657Z,99.90
2019-05-20T08:05:48.041Z,99.90
2019-05-20T08:08:17.412Z,99.90
2019-05-20T08:10:47.307Z,99.90
2019-05-20T08:13:16.716Z,99.90
2019-05-20T08:15:46.069Z,99.90
2019-05-20T08:18:15.409Z,99.90
2019-05-20T08:20:44.903Z,99.90
2019-05-20T08:23:14.782Z,99.90
2019-05-20T08:25:44.742Z,99.90
2019-05-20T08:28:14.083Z,99.90
2019-05-20T08:30:43.457Z,99.90
2019-05-20T08:33:13.501Z,98.60
2019-05-20T08:35:42.878Z,99.60
2019-05-20T08:38:12.273Z,99.00
2019-05-20T08:40:43.004Z,99.10
2019-05-20T08:43:12.623Z,98.20
2019-05-20T08:45:42.010Z,98.10
2019-05-20T08:48:11.465Z,98.30
2019-05-20T08:50:40.909Z,98.70
2019-05-20T08:53:10.304Z,96.60
2019-05-20T08:55:39.762Z,97.60
2019-05-20T08:58:09.129Z,97.00
2019-05-20T09:00:38.415Z,96.70
2019-05-20T09:03:07.826Z,96.30
2019-05-20T09:05:37.173Z,95.30
2019-05-20T09:08:06.513Z,95.50
2019-05-20T09:10:39.276Z,95.60
2019-05-20T09:13:07.342Z,95.20
2019-05-20T09:15:36.621Z,95.20
2019-05-20T09:18:05.997Z,95.20
2019-05-20T09:20:35.271Z,95.50
2019-05-20T09:23:04.624Z,95.00
2019-05-20T09:25:34.467Z,94.50
2019-05-20T09:28:03.817Z,94.70
2019-05-20T09:30:33.149Z,93.80
2019-05-20T09:33:02.973Z,93.70
2019-05-20T09:35:32.451Z,91.60
2019-05-20T09:38:16.107Z,92.90
2019-05-20T09:40:44.618Z,94.30
2019-05-20T09:43:14.083Z,94.90
2019-05-20T09:45:43.584Z,92.20
2019-05-20T09:48:13.011Z,92.00
2019-05-20T09:50:42.371Z,92.10
2019-05-20T09:53:12.381Z,93.00
2019-05-20T09:55:41.864Z,92.80
2019-05-20T09:58:11.305Z,93.10
2019-05-20T10:00:41.117Z,91.00
2019-05-20T10:03:10.605Z,91.90
2019-05-20T10:05:40.018Z,91.40
2019-05-20T10:08:09.370Z,90.90
2019-05-20T10:10:38.801Z,91.50
2019-05-20T10:13:08.742Z,90.40
2019-05-20T10:15:39.115Z,89.90
2019-05-20T10:18:08.613Z,90.10
2019-05-20T10:20:37.917Z,91.00
2019-05-20T10:23:07.327Z,90.50
2019-05-20T10:25:37.261Z,91.00
2019-05-20T10:28:06.648Z,90.30
2019-05-20T10:30:36.455Z,91.00
2019-05-20T10:33:09.392Z,91.20
2019-05-20T10:35:36.989Z,91.60
2019-05-20T10:38:06.385Z,91.60
2019-05-20T10:40:35.762Z,91.40
2019-05-20T10:43:05.066Z,90.80
2019-05-20T10:45:34.969Z,91.30
2019-05-20T10:48:08.402Z,91.20
2019-05-20T10:50:35.610Z,91.00
2019-05-20T10:53:04.989Z,91.80
2019-05-20T10:55:34.422Z,91.80
2019-05-20T10:58:03.772Z,91.10
2019-05-20T11:00:33.232Z,91.60
2019-05-20T11:03:02.743Z,92.00
2019-05-20T11:05:32.854Z,92.20
2019-05-20T11:08:02.209Z,93.00
2019-05-20T11:10:31.613Z,91.10
2019-05-20T11:13:01.356Z,90.80
2019-05-20T11:15:31.317Z,91.00
2019-05-20T11:18:00.605Z,90.80
2019-05-20T11:20:30.022Z,89.60
2019-05-20T11:23:01.180Z,90.50
2019-05-20T11:25:30.402Z,82.30
2019-05-20T11:27:59.745Z,87.20
2019-05-20T11:30:29.085Z,80.90
2019-05-20T11:32:58.370Z,81.70
2019-05-20T11:35:27.734Z,82.00
2019-05-20T11:37:57.062Z,76.70
2019-05-20T11:40:26.390Z,80.80
2019-05-20T11:42:55.677Z,73.60
2019-05-20T11:45:25.041Z,73.10
2019-05-20T11:47:54.384Z,73.20
2019-05-20T11:50:23.753Z,72.60
2019-05-20T11:52:53.118Z,76.20
2019-05-20T11:55:22.409Z,71.60
2019-05-20T11:57:51.817Z,73.10
2019-05-20T12:00:21.657Z,69.40
2019-05-20T12:02:50.991Z,70.30
2019-05-20T12:05:20.317Z,73.40
2019-05-20T12:07:49.718Z,70.90
2019-05-20T12:10:19.506Z,73.70
2019-05-20T12:12:48.882Z,69.30
2019-05-20T12:15:18.974Z,74.50
2019-05-20T12:17:48.249Z,70.10
2019-05-20T12:20:17.873Z,69.00
2019-05-20T12:22:47.206Z,67.20
2019-05-20T12:25:16.966Z,69.30
2019-05-20T12:27:46.294Z,66.80
2019-05-20T12:30:16.578Z,69.00
2019-05-20T12:32:45.966Z,67.90
2019-05-20T12:35:15.679Z,69.40
2019-05-20T12:37:45.752Z,68.00
2019-05-20T12:40:16.398Z,67.20
2019-05-20T12:42:45.682Z,64.80
2019-05-20T12:45:15.415Z,67.10
2019-05-20T12:47:44.847Z,68.80
2019-05-20T12:50:15.030Z,71.40
2019-05-20T12:52:44.436Z,64.60
2019-05-20T12:55:14.779Z,65.30
2019-05-20T12:57:44.072Z,63.30
2019-05-20T13:00:15.409Z,64.50
2019-05-20T13:02:44.758Z,67.90
2019-05-20T13:05:14.627Z,70.30
2019-05-20T13:07:44.029Z,72.20
2019-05-20T13:10:28.949Z,72.90
2019-05-20T13:12:45.716Z,74.70
2019-05-20T13:15:15.590Z,76.50
2019-05-20T13:17:45.566Z,75.10
2019-05-20T13:20:15.899Z,71.30
2019-05-20T13:22:45.170Z,69.60
2019-05-20T13:25:35.033Z,67.30
2019-05-20T13:28:04.405Z,69.80
2019-05-20T13:30:33.739Z,71.00
2019-05-20T13:33:03.014Z,70.00
2019-05-20T13:35:32.350Z,67.90
2019-05-20T13:38:01.666Z,69.00
2019-05-20T13:40:44.831Z,66.50
2019-05-20T13:43:02.088Z,61.50
2019-05-20T13:45:31.379Z,63.40
2019-05-20T13:48:00.694Z,61.50
2019-05-20T13:50:29.971Z,61.30
2019-05-20T13:52:59.305Z,62.90
2019-05-20T13:55:28.587Z,59.50
2019-05-20T13:57:57.913Z,59.40
2019-05-20T14:00:27.702Z,62.10
2019-05-20T14:02:57.051Z,66.30
2019-05-20T14:05:26.461Z,70.10
2019-05-20T14:07:55.743Z,68.30
2019-05-20T14:10:25.149Z,69.60
2019-05-20T14:12:54.481Z,71.00
2019-05-20T14:15:23.757Z,71.10
2019-05-20T14:17:53.146Z,74.30
2019-05-20T14:20:23.358Z,80.40
2019-05-20T14:22:52.642Z,82.20
2019-05-20T14:25:22.049Z,83.30
2019-05-20T14:27:51.357Z,84.00
2019-05-20T14:30:21.015Z,84.20
2019-05-20T14:32:50.987Z,84.80
2019-05-20T14:35:20.377Z,84.20
2019-05-20T14:37:49.787Z,84.40
2019-05-20T14:40:19.098Z,84.30
2019-05-20T14:42:48.534Z,85.90
2019-05-20T14:45:18.829Z,86.20
2019-05-20T14:47:48.161Z,86.20
2019-05-20T14:50:17.849Z,85.90
2019-05-20T14:52:47.278Z,85.80
2019-05-20T14:55:16.561Z,86.70
2019-05-20T14:57:45.890Z,88.10
2019-05-20T15:00:15.575Z,87.60
2019-05-20T15:02:44.906Z,86.30
2019-05-20T15:05:15.138Z,87.70
2019-05-20T15:07:44.593Z,89.00
2019-05-20T15:10:15.661Z,89.80
2019-05-20T15:12:45.017Z,90.00
2019-05-20T15:15:16.457Z,89.80
2019-05-20T15:17:45.734Z,89.80
2019-05-20T15:20:16.460Z,90.30
2019-05-20T15:22:45.743Z,91.00
2019-05-20T15:25:15.058Z,91.00
2019-05-20T15:27:44.353Z,90.50
2019-05-20T15:30:14.576Z,90.10
2019-05-20T15:32:43.942Z,90.00
2019-05-20T15:35:13.885Z,88.60
2019-05-20T15:37:43.170Z,87.10
2019-05-20T15:40:13.430Z,87.70
2019-05-20T15:42:42.848Z,87.60
2019-05-20T15:45:12.697Z,87.20
2019-05-20T15:47:42.042Z,85.10
2019-05-20T15:50:12.823Z,82.70
2019-05-20T15:52:42.524Z,80.50
2019-05-20T15:55:13.178Z,83.40
2019-05-20T15:57:42.533Z,78.70
2019-05-20T16:00:13.158Z,72.20
2019-05-20T16:02:42.442Z,70.50
2019-05-20T16:05:12.389Z,70.50
2019-05-20T16:07:41.717Z,71.00
2019-05-20T16:10:11.666Z,71.10
2019-05-20T16:12:41.126Z,68.50
2019-05-20T16:15:11.322Z,69.10
2019-05-20T16:17:40.687Z,69.10
2019-05-20T16:20:11.022Z,66.60
2019-05-20T16:22:40.303Z,64.60
2019-05-20T16:25:10.237Z,67.60
2019-05-20T16:27:39.572Z,70.20
2019-05-20T16:30:09.673Z,70.80
2019-05-20T16:32:39.043Z,74.30
2019-05-20T16:35:09.562Z,73.90
2019-05-20T16:37:39.376Z,75.20
2019-05-20T16:40:10.338Z,76.80
2019-05-20T16:42:40.725Z,78.30
2019-05-20T16:45:12.438Z,79.60
2019-05-20T16:47:41.952Z,81.00
2019-05-20T16:50:12.278Z,81.30
2019-05-20T16:52:42.448Z,81.50
2019-05-20T16:55:12.617Z,80.50
2019-05-20T16:57:41.961Z,80.60
2019-05-20T17:00:29.862Z,79.00
2019-05-20T17:02:43.479Z,79.00
2019-05-20T17:05:13.211Z,79.50
2019-05-20T17:07:42.491Z,80.10
2019-05-20T17:10:12.158Z,80.70
2019-05-20T17:12:41.576Z,80.40
2019-05-20T17:15:11.877Z,80.50
2019-05-20T17:17:41.153Z,81.60
2019-05-20T17:20:10.979Z,81.80
2019-05-20T17:22:40.393Z,83.00
2019-05-20T17:25:10.076Z,83.60
2019-05-20T17:27:39.902Z,84.30
2019-05-20T17:30:10.331Z,85.00
2019-05-20T17:32:39.650Z,86.30
2019-05-20T17:35:09.511Z,87.60
2019-05-20T17:37:38.918Z,87.90
2019-05-20T17:40:09.559Z,88.70
2019-05-20T17:42:38.903Z,88.80
2019-05-20T17:45:10.174Z,89.70
2019-05-20T17:47:40.291Z,90.00
2019-05-20T17:50:11.183Z,89.90
2019-05-20T17:52:41.173Z,90.00
2019-05-20T17:55:11.728Z,89.70
2019-05-20T17:57:42.129Z,89.70
2019-05-20T18:00:17.586Z,90.10
2019-05-20T18:02:46.905Z,90.20
2019-05-20T18:05:16.374Z,90.30
2019-05-20T18:07:45.729Z,90.60
2019-05-20T18:10:18.010Z,90.70
2019-05-20T18:12:47.601Z,90.90
2019-05-20T18:15:17.318Z,91.50
2019-05-20T18:17:46.669Z,91.60
2019-05-20T18:20:17.614Z,91.70
2019-05-20T18:22:46.953Z,91.90
2019-05-20T18:25:17.222Z,92.30
2019-05-20T18:27:46.590Z,92.20
2019-05-20T18:30:16.965Z,92.30
2019-05-20T18:32:46.342Z,92.70
2019-05-20T18:35:16.061Z,92.80
2019-05-20T18:37:45.509Z,92.80
2019-05-20T18:40:15.912Z,92.90
2019-05-20T18:42:45.253Z,93.30
2019-05-20T18:45:15.175Z,93.00
2019-05-20T18:47:44.529Z,92.90
2019-05-20T18:50:14.779Z,92.90
2019-05-20T18:52:45.224Z,92.80
2019-05-20T18:55:15.057Z,93.10
2019-05-20T18:57:44.437Z,93.50
2019-05-20T19:00:15.674Z,93.80
2019-05-20T19:02:45.247Z,93.80
2019-05-20T19:05:15.062Z,93.90
2019-05-20T19:07:44.813Z,93.80
2019-05-20T19:10:15.943Z,93.90
2019-05-20T19:12:45.407Z,94.10
2019-05-20T19:15:17.564Z,94.40
2019-05-20T19:17:47.033Z,94.20
2019-05-20T19:20:16.474Z,94.20
2019-05-20T19:22:45.945Z,94.10
2019-05-20T19:25:15.299Z,93.90
2019-05-20T19:27:44.655Z,93.80
2019-05-20T19:30:15.017Z,93.60
2019-05-20T19:32:45.421Z,93.30
2019-05-20T19:35:15.452Z,93.10
2019-05-20T19:37:44.844Z,93.10
2019-05-20T19:40:15.079Z,93.20
2019-05-20T19:42:44.393Z,93.60
2019-05-20T19:45:14.173Z,93.90
2019-05-20T19:47:43.617Z,94.20
2019-05-20T19:50:14.683Z,94.40
2019-05-20T19:52:44.089Z,94.80
2019-05-20T19:55:13.892Z,95.10
2019-05-20T19:57:43.277Z,95.40
2019-05-20T20:00:13.943Z,95.60
2019-05-20T20:02:43.714Z,95.90
2019-05-20T20:05:13.881Z,96.00
2019-05-20T20:07:43.236Z,96.20
2019-05-20T20:10:13.108Z,96.30
2019-05-20T20:12:42.552Z,96.40
2019-05-20T20:15:17.815Z,96.20
2019-05-20T20:17:47.332Z,96.10
2019-05-20T20:20:16.823Z,96.10
2019-05-20T20:22:47.250Z,96.00
2019-05-20T20:25:16.615Z,95.70
2019-05-20T20:27:46.469Z,95.50
2019-05-20T20:30:16.541Z,95.20
2019-05-20T20:32:45.920Z,95.20
2019-05-20T20:35:15.819Z,95.30
2019-05-20T20:37:45.174Z,95.10
2019-05-20T20:40:15.194Z,95.20
2019-05-20T20:42:45.077Z,95.00
2019-05-20T20:45:15.001Z,94.60
2019-05-20T20:47:44.681Z,94.80
2019-05-20T20:50:14.045Z,94.50
2019-05-20T20:52:43.386Z,94.40
2019-05-20T20:55:13.844Z,94.30
2019-05-20T20:57:43.877Z,94.20
2019-05-20T21:00:13.505Z,94.40
2019-05-20T21:02:52.785Z,94.60
2019-05-20T21:05:13.918Z,94.90
2019-05-20T21:07:43.253Z,95.00
2019-05-20T21:10:12.938Z,95.30
2019-05-20T21:12:42.296Z,95.50
2019-05-20T21:15:12.085Z,95.70
2019-05-20T21:17:41.418Z,96.00
2019-05-20T21:20:11.849Z,96.20
2019-05-20T21:22:41.142Z,96.00
2019-05-20T21:25:10.947Z,96.10
2019-05-20T21:27:40.227Z,96.20
2019-05-20T21:30:09.954Z,96.50
2019-05-20T21:32:39.289Z,96.40
2019-05-20T21:35:08.912Z,96.10
2019-05-20T21:37:38.226Z,95.60
2019-05-20T21:40:07.997Z,95.50
2019-05-20T21:42:37.341Z,95.40
2019-05-20T21:45:07.545Z,95.30
2019-05-20T21:47:36.881Z,95.20
2019-05-20T21:50:06.668Z,95.20
2019-05-20T21:52:36.136Z,95.10
2019-05-20T21:55:05.897Z,95.00
2019-05-20T21:57:35.169Z,95.00
2019-05-20T22:00:05.494Z,95.20
2019-05-20T22:02:34.789Z,95.10
2019-05-20T22:05:04.229Z,95.20
2019-05-20T22:07:33.548Z,95.20
2019-05-20T22:10:03.060Z,95.00
2019-05-20T22:12:32.413Z,95.00
2019-05-20T22:15:02.132Z,94.90
2019-05-20T22:17:32.153Z,94.90
2019-05-20T22:20:01.489Z,94.90
2019-05-20T22:22:36.389Z,94.80
2019-05-20T22:25:05.721Z,94.60
2019-05-20T22:27:34.999Z,94.60
2019-05-20T22:30:05.839Z,94.60
2019-05-20T22:32:35.182Z,94.60
2019-05-20T22:35:05.681Z,94.30
2019-05-20T22:37:34.955Z,94.20
2019-05-20T22:40:04.896Z,94.20
2019-05-20T22:42:34.242Z,94.50
2019-05-20T22:45:03.561Z,94.60
2019-05-20T22:47:32.962Z,95.00
2019-05-20T22:50:02.258Z,95.20
2019-05-20T22:52:31.587Z,95.40
2019-05-20T22:55:00.890Z,95.40
2019-05-20T22:57:30.329Z,95.50
2019-05-20T22:59:59.703Z,95.30
2019-05-20T23:02:29.015Z,95.40
2019-05-20T23:04:58.406Z,95.30
2019-05-20T23:07:27.721Z,95.40
2019-05-20T23:09:57.006Z,95.50
2019-05-20T23:12:26.337Z,95.80
2019-05-20T23:14:55.665Z,95.70
2019-05-20T23:17:24.992Z,95.70
2019-05-20T23:19:54.339Z,95.80
2019-05-20T23:22:23.718Z,95.70
2019-05-20T23:24:53.070Z,95.60
2019-05-20T23:27:22.398Z,95.70
2019-05-20T23:29:51.737Z,95.80
2019-05-20T23:32:21.077Z,95.60
2019-05-20T23:34:50.438Z,95.60
2019-05-20T23:37:19.774Z,95.70
2019-05-20T23:39:49.058Z,95.90
2019-05-20T23:42:18.336Z,95.80
2019-05-20T23:44:47.670Z,95.90
2019-05-20T23:47:16.944Z,95.90
2019-05-20T23:49:46.270Z,95.70
2019-05-20T23:52:15.605Z,95.70
2019-05-20T23:54:44.977Z,95.70
2019-05-20T23:57:14.309Z,96.10
2019-05-20T23:59:43.598Z,96.10
